createdAt,value
2018-05-09T00:00:37.484Z,4.60
2018-05-09T00:03:05.789Z,6.03
2018-05-09T00:05:33.293Z,4.73
2018-05-09T00:08:00.822Z,5.23
2018-05-09T00:10:28.350Z,5.40
2018-05-09T00:12:55.920Z,5.50
2018-05-09T00:15:23.424Z,5.17
2018-05-09T00:17:50.994Z,5.47
2018-05-09T00:20:18.506Z,5.87
2018-05-09T00:22:46.028Z,6.00
2018-05-09T00:25:14.326Z,5.50
2018-05-09T00:27:42.545Z,6.10
2018-05-09T00:30:10.074Z,6.30
2018-05-09T00:32:37.585Z,5.90
2018-05-09T00:35:05.908Z,6.03
2018-05-09T00:37:33.429Z,6.00
2018-05-09T00:40:00.997Z,5.70
2018-05-09T00:42:29.282Z,6.13
2018-05-09T00:44:56.826Z,5.57
2018-05-09T00:47:25.139Z,6.10
2018-05-09T00:49:52.666Z,5.60
2018-05-09T00:52:20.206Z,6.07
2018-05-09T00:54:47.720Z,7.13
2018-05-09T00:57:15.264Z,5.90
2018-05-09T00:59:42.772Z,7.80
2018-05-09T01:02:10.323Z,7.10
2018-05-09T01:04:37.841Z,6.43
2018-05-09T01:07:05.410Z,5.30
2018-05-09T01:09:32.915Z,7.27
2018-05-09T01:12:00.436Z,6.17
2018-05-09T01:14:27.964Z,7.20
2018-05-09T01:16:55.504Z,7.90
2018-05-09T01:19:23.797Z,7.20
2018-05-09T01:21:52.090Z,6.77
2018-05-09T01:24:19.612Z,6.23
2018-05-09T01:26:47.901Z,6.43
2018-05-09T01:29:16.198Z,7.50
2018-05-09T01:31:43.712Z,6.90
2018-05-09T01:34:11.266Z,6.77
2018-05-09T01:36:38.786Z,7.07
2018-05-09T01:39:06.311Z,7.10
2018-05-09T01:41:34.601Z,6.50
2018-05-09T01:44:02.142Z,6.60
2018-05-09T01:46:30.460Z,6.50
2018-05-09T01:48:57.974Z,6.50
2018-05-09T01:51:26.274Z,6.47
2018-05-09T01:53:53.877Z,7.10
2018-05-09T01:56:21.429Z,6.20
2018-05-09T01:58:48.976Z,7.17
2018-05-09T02:01:16.482Z,6.60
2018-05-09T02:03:44.017Z,7.43
2018-05-09T02:06:11.637Z,7.10
2018-05-09T02:08:39.107Z,7.60
2018-05-09T02:11:06.612Z,6.57
2018-05-09T02:13:34.165Z,6.67
2018-05-09T02:16:01.696Z,6.83
2018-05-09T02:18:29.218Z,7.00
2018-05-09T02:20:57.497Z,6.70
2018-05-09T02:23:24.997Z,6.33
2018-05-09T02:25:53.307Z,7.27
2018-05-09T02:28:20.829Z,6.70
2018-05-09T02:30:48.343Z,6.33
2018-05-09T02:33:15.896Z,6.37
2018-05-09T02:35:44.181Z,7.77
2018-05-09T02:38:11.716Z,7.10
2018-05-09T02:40:39.245Z,7.07
2018-05-09T02:43:06.756Z,7.37
2018-05-09T02:45:34.274Z,6.20
2018-05-09T02:48:01.800Z,8.00
2018-05-09T02:50:29.329Z,6.20
2018-05-09T02:52:56.879Z,7.28
2018-05-09T02:55:25.148Z,6.53
2018-05-09T02:57:52.669Z,6.33
2018-05-09T03:00:20.209Z,8.05
2018-05-09T03:02:47.737Z,7.25
2018-05-09T03:05:16.019Z,7.05
2018-05-09T03:07:43.564Z,6.75
2018-05-09T03:10:11.843Z,6.15
2018-05-09T03:12:40.129Z,7.72
2018-05-09T03:15:07.691Z,6.50
2018-05-09T03:17:35.210Z,7.10
2018-05-09T03:20:02.769Z,7.78
2018-05-09T03:22:30.280Z,7.40
2018-05-09T03:24:57.836Z,7.28
2018-05-09T03:27:25.358Z,7.30
2018-05-09T03:29:53.787Z,7.22
2018-05-09T03:32:21.240Z,7.40
2018-05-09T03:34:48.751Z,7.30
2018-05-09T03:37:16.275Z,7.43
2018-05-09T03:39:43.775Z,8.10
2018-05-09T03:42:11.303Z,8.20
2018-05-09T03:44:38.846Z,6.30
2018-05-09T03:47:06.358Z,7.75
2018-05-09T03:49:34.639Z,6.95
2018-05-09T03:52:02.220Z,7.57
2018-05-09T03:54:29.720Z,6.18
2018-05-09T03:56:58.013Z,7.47
2018-05-09T03:59:25.605Z,8.52
2018-05-09T04:02:05.122Z,7.72
2018-05-09T04:04:44.555Z,7.75
2018-05-09T04:07:24.057Z,8.82
2018-05-09T04:09:55.451Z,8.40
2018-05-09T04:12:22.972Z,8.73
2018-05-09T04:14:50.487Z,8.48
2018-05-09T04:17:18.800Z,6.85
2018-05-09T04:19:46.304Z,6.55
2018-05-09T04:22:13.889Z,7.32
2018-05-09T04:24:41.378Z,9.45
2018-05-09T04:27:08.927Z,7.10
2018-05-09T04:29:36.441Z,7.28
2018-05-09T04:32:03.978Z,7.53
2018-05-09T04:34:31.479Z,7.62
2018-05-09T04:36:59.890Z,7.07
2018-05-09T04:39:27.396Z,7.80
2018-05-09T04:41:54.986Z,8.25
2018-05-09T04:44:22.461Z,7.60
2018-05-09T04:46:49.963Z,7.40
2018-05-09T04:49:17.547Z,8.48
2018-05-09T04:51:45.008Z,8.45
2018-05-09T04:54:12.516Z,7.00
2018-05-09T04:56:40.054Z,7.80
2018-05-09T04:59:07.573Z,8.13
2018-05-09T05:01:35.876Z,6.68
2018-05-09T05:04:03.396Z,7.55
2018-05-09T05:06:30.908Z,6.57
2018-05-09T05:08:58.445Z,7.30
2018-05-09T05:11:25.970Z,8.05
2018-05-09T05:13:53.475Z,8.43
2018-05-09T05:16:21.021Z,7.70
2018-05-09T05:18:48.536Z,7.30
2018-05-09T05:21:16.098Z,6.12
2018-05-09T05:23:43.648Z,8.00
2018-05-09T05:26:11.194Z,7.32
2018-05-09T05:28:38.720Z,7.68
2018-05-09T05:31:06.242Z,6.70
2018-05-09T05:33:34.552Z,7.90
2018-05-09T05:36:02.078Z,8.40
2018-05-09T05:38:30.383Z,8.07
2018-05-09T05:40:57.891Z,6.53
2018-05-09T05:43:25.410Z,7.68
2018-05-09T05:45:52.949Z,6.53
2018-05-09T05:48:21.246Z,6.70
2018-05-09T05:50:48.758Z,5.57
2018-05-09T05:53:16.305Z,7.70
2018-05-09T05:55:43.821Z,6.37
2018-05-09T05:58:11.343Z,6.20
2018-05-09T06:00:38.877Z,6.00
2018-05-09T06:03:06.381Z,6.03
2018-05-09T06:05:34.671Z,8.37
2018-05-09T06:08:02.289Z,7.37
2018-05-09T06:10:29.784Z,7.17
2018-05-09T06:12:57.318Z,7.20
2018-05-09T06:15:25.619Z,7.80
2018-05-09T06:17:53.132Z,8.17
2018-05-09T06:20:20.665Z,7.60
2018-05-09T06:22:48.200Z,7.07
2018-05-09T06:25:15.723Z,6.33
2018-05-09T06:27:43.426Z,7.13
2018-05-09T06:30:10.961Z,6.07
2018-05-09T06:32:38.498Z,6.67
2018-05-09T06:35:06.037Z,6.93
2018-05-09T06:37:33.558Z,6.13
2018-05-09T06:40:01.083Z,6.73
2018-05-09T06:42:29.392Z,5.63
2018-05-09T06:44:56.911Z,6.53
2018-05-09T06:47:24.456Z,6.57
2018-05-09T06:49:52.036Z,5.23
2018-05-09T06:52:19.507Z,7.87
2018-05-09T06:54:47.831Z,6.30
2018-05-09T06:57:15.336Z,5.40
2018-05-09T06:59:43.646Z,6.70
2018-05-09T07:02:11.182Z,6.00
2018-05-09T07:04:39.469Z,6.23
2018-05-09T07:07:07.772Z,6.70
2018-05-09T07:09:35.276Z,6.70
2018-05-09T07:12:02.806Z,5.60
2018-05-09T07:14:30.336Z,5.90
2018-05-09T07:16:57.899Z,4.60
2018-05-09T07:19:25.408Z,7.20
2018-05-09T07:21:52.958Z,6.23
2018-05-09T07:24:20.469Z,5.17
2018-05-09T07:26:48.022Z,5.47
2018-05-09T07:29:15.574Z,5.20
2018-05-09T07:31:43.854Z,4.60
2018-05-09T07:34:12.145Z,5.80
2018-05-09T07:36:39.682Z,5.40
2018-05-09T07:39:07.952Z,5.30
2018-05-09T07:41:36.212Z,4.60
2018-05-09T07:44:03.760Z,4.97
2018-05-09T07:46:31.281Z,5.10
2018-05-09T07:48:58.784Z,4.47
2018-05-09T07:51:26.310Z,5.70
2018-05-09T07:53:53.825Z,5.47
2018-05-09T07:56:22.110Z,4.40
2018-05-09T07:58:49.648Z,4.73
2018-05-09T08:01:17.166Z,5.67
2018-05-09T08:03:44.667Z,5.63
2018-05-09T08:06:12.990Z,5.50
2018-05-09T08:08:40.492Z,5.73
2018-05-09T08:11:08.005Z,5.07
2018-05-09T08:13:35.537Z,5.70
2018-05-09T08:16:03.862Z,4.80
2018-05-09T08:18:31.366Z,5.17
2018-05-09T08:20:59.658Z,5.00
2018-05-09T08:23:27.172Z,5.40
2018-05-09T08:25:54.723Z,4.70
2018-05-09T08:28:22.237Z,4.33
2018-05-09T08:30:49.775Z,4.93
2018-05-09T08:33:18.068Z,5.23
2018-05-09T08:35:45.676Z,5.40
2018-05-09T08:38:13.197Z,5.33
2018-05-09T08:40:40.721Z,5.30
2018-05-09T08:43:08.286Z,8.10
2018-05-09T08:45:35.764Z,6.13
2018-05-09T08:48:03.326Z,5.60
2018-05-09T08:50:30.834Z,4.87
2018-05-09T08:52:58.367Z,6.20
2018-05-09T08:55:25.989Z,5.80
2018-05-09T08:57:53.425Z,6.33
2018-05-09T09:00:20.943Z,5.00
2018-05-09T09:02:48.487Z,6.40
2018-05-09T09:05:15.991Z,5.60
2018-05-09T09:07:43.499Z,6.07
2018-05-09T09:10:11.028Z,5.27
2018-05-09T09:12:39.316Z,5.67
2018-05-09T09:15:07.577Z,5.17
2018-05-09T09:17:35.123Z,4.83
2018-05-09T09:20:02.626Z,6.03
2018-05-09T09:22:30.142Z,4.77
2018-05-09T09:24:57.659Z,4.53
2018-05-09T09:27:25.201Z,7.10
2018-05-09T09:29:52.719Z,5.20
2018-05-09T09:32:20.233Z,5.33
2018-05-09T09:34:47.748Z,5.13
2018-05-09T09:37:16.058Z,5.03
2018-05-09T09:39:43.575Z,3.47
2018-05-09T09:42:11.880Z,3.87
2018-05-09T09:44:40.152Z,4.33
2018-05-09T09:47:07.673Z,5.93
2018-05-09T09:49:35.201Z,4.43
2018-05-09T09:52:02.706Z,3.90
2018-05-09T09:54:30.232Z,4.20
2018-05-09T09:56:57.736Z,4.50
2018-05-09T09:59:26.036Z,5.37
2018-05-09T10:01:53.565Z,6.90
2018-05-09T10:04:21.855Z,6.80
2018-05-09T10:06:50.151Z,5.33
2018-05-09T10:09:17.657Z,4.33
2018-05-09T10:11:45.170Z,3.93
2018-05-09T10:14:12.705Z,4.57
2018-05-09T10:16:41.016Z,4.80
2018-05-09T10:19:08.544Z,4.30
2018-05-09T10:21:36.858Z,3.77
2018-05-09T10:24:04.387Z,4.53
2018-05-09T10:26:31.900Z,3.77
2018-05-09T10:28:59.420Z,3.77
2018-05-09T10:31:26.979Z,3.73
2018-05-09T10:33:54.493Z,4.80
2018-05-09T10:36:22.028Z,4.30
2018-05-09T10:38:49.571Z,4.60
2018-05-09T10:41:17.111Z,3.83
2018-05-09T10:43:44.623Z,4.10
2018-05-09T10:46:12.154Z,4.47
2018-05-09T10:48:39.688Z,3.63
2018-05-09T10:51:07.214Z,3.47
2018-05-09T10:53:35.499Z,3.83
2018-05-09T10:56:03.033Z,3.47
2018-05-09T10:58:30.554Z,3.73
2018-05-09T11:00:58.078Z,4.13
2018-05-09T11:03:26.373Z,3.27
2018-05-09T11:05:53.896Z,3.13
2018-05-09T11:08:21.433Z,3.40
2018-05-09T11:10:48.950Z,3.73
2018-05-09T11:13:16.455Z,4.00
2018-05-09T11:15:44.763Z,3.67
2018-05-09T11:18:12.285Z,5.43
2018-05-09T11:20:40.583Z,4.67
2018-05-09T11:23:08.127Z,5.03
2018-05-09T11:25:35.637Z,3.40
2018-05-09T11:28:03.181Z,3.97
2018-05-09T11:30:30.708Z,3.40
2018-05-09T11:32:58.274Z,3.30
2018-05-09T11:35:25.776Z,3.20
2018-05-09T11:37:53.319Z,3.80
2018-05-09T11:40:21.610Z,3.40
2018-05-09T11:42:49.111Z,3.60
2018-05-09T11:45:16.614Z,3.47
2018-05-09T11:47:44.164Z,3.57
2018-05-09T11:50:12.446Z,3.33
2018-05-09T11:52:40.741Z,3.60
2018-05-09T11:55:08.271Z,3.20
2018-05-09T11:57:36.538Z,3.60
2018-05-09T12:00:04.068Z,3.87
2018-05-09T12:02:31.575Z,4.20
2018-05-09T12:04:59.846Z,4.00
2018-05-09T12:07:28.148Z,4.20
2018-05-09T12:09:55.694Z,4.27
2018-05-09T12:12:23.214Z,4.20
2018-05-09T12:14:50.766Z,5.23
2018-05-09T12:17:18.283Z,4.53
2018-05-09T12:19:45.797Z,4.80
2018-05-09T12:22:13.320Z,3.93
2018-05-09T12:24:40.909Z,4.20
2018-05-09T12:27:09.146Z,4.23
2018-05-09T12:29:36.676Z,4.60
2018-05-09T12:32:04.970Z,4.72
2018-05-09T12:34:32.491Z,5.23
2018-05-09T12:37:00.769Z,5.47
2018-05-09T12:39:29.094Z,5.30
2018-05-09T12:41:56.611Z,4.40
2018-05-09T12:44:24.890Z,5.27
2018-05-09T12:46:53.187Z,4.47
2018-05-09T12:49:20.689Z,4.50
2018-05-09T12:51:48.232Z,4.30
2018-05-09T12:54:15.749Z,3.70
2018-05-09T12:56:44.059Z,3.43
2018-05-09T12:59:11.565Z,3.40
2018-05-09T13:01:39.083Z,3.47
2018-05-09T13:04:06.631Z,3.53
2018-05-09T13:06:34.188Z,3.70
2018-05-09T13:09:01.698Z,4.13
2018-05-09T13:11:29.236Z,4.10
2018-05-09T13:13:56.755Z,4.20
2018-05-09T13:16:24.286Z,4.30
2018-05-09T13:18:52.577Z,5.30
2018-05-09T13:21:20.857Z,4.13
2018-05-09T13:23:48.357Z,4.27
2018-05-09T13:26:15.892Z,5.50
2018-05-09T13:28:43.404Z,4.63
2018-05-09T13:31:10.938Z,5.13
2018-05-09T13:33:38.473Z,4.73
2018-05-09T13:36:06.015Z,5.00
2018-05-09T13:38:33.529Z,4.90
2018-05-09T13:41:01.100Z,4.47
2018-05-09T13:43:28.624Z,4.20
2018-05-09T13:45:56.150Z,4.53
2018-05-09T13:48:23.679Z,4.97
2018-05-09T13:50:51.190Z,3.60
2018-05-09T13:53:18.688Z,3.90
2018-05-09T13:55:46.239Z,3.30
2018-05-09T13:58:13.761Z,4.17
2018-05-09T14:00:41.290Z,3.37
2018-05-09T14:03:08.811Z,3.60
2018-05-09T14:05:36.320Z,3.30
2018-05-09T14:08:03.853Z,2.20
2018-05-09T14:10:31.374Z,2.30
2018-05-09T14:12:58.882Z,2.80
2018-05-09T14:15:27.234Z,2.67
2018-05-09T14:17:54.697Z,3.67
2018-05-09T14:20:22.220Z,2.53
2018-05-09T14:22:49.744Z,2.50
2018-05-09T14:25:17.365Z,2.37
2018-05-09T14:27:45.562Z,2.57
2018-05-09T14:30:13.844Z,3.40
2018-05-09T14:32:42.117Z,3.00
2018-05-09T14:35:10.380Z,2.60
2018-05-09T14:37:37.898Z,3.30
2018-05-09T14:40:05.410Z,2.93
2018-05-09T14:42:33.692Z,3.10
2018-05-09T14:45:01.964Z,3.43
2018-05-09T14:47:30.252Z,2.73
2018-05-09T14:49:57.793Z,2.23
2018-05-09T14:52:26.073Z,3.07
2018-05-09T14:54:54.377Z,2.83
2018-05-09T14:57:21.879Z,2.07
2018-05-09T14:59:49.384Z,2.20
2018-05-09T15:02:16.905Z,2.23
2018-05-09T15:04:44.440Z,2.73
2018-05-09T15:07:11.939Z,2.27
2018-05-09T15:09:40.245Z,2.13
2018-05-09T15:12:07.758Z,2.10
2018-05-09T15:14:35.293Z,2.70
2018-05-09T15:17:02.793Z,2.03
2018-05-09T15:19:31.147Z,2.10
2018-05-09T15:21:59.374Z,2.23
2018-05-09T15:24:26.883Z,2.27
2018-05-09T15:26:56.849Z,2.07
2018-05-09T15:29:24.769Z,2.30
2018-05-09T15:31:52.269Z,2.30
2018-05-09T15:34:19.862Z,2.33
2018-05-09T15:36:47.384Z,2.47
2018-05-09T15:39:14.881Z,2.30
2018-05-09T15:41:42.408Z,2.70
2018-05-09T15:44:09.921Z,2.93
2018-05-09T15:46:37.441Z,2.80
2018-05-09T15:49:05.006Z,2.67
2018-05-09T15:51:32.505Z,2.40
2018-05-09T15:54:00.780Z,2.70
2018-05-09T15:56:28.339Z,2.60
2018-05-09T15:58:55.848Z,3.57
2018-05-09T16:01:23.362Z,3.10
2018-05-09T16:03:50.882Z,2.33
2018-05-09T16:06:18.397Z,2.57
2018-05-09T16:08:46.694Z,2.63
2018-05-09T16:11:14.192Z,2.60
2018-05-09T16:13:41.694Z,1.70
2018-05-09T16:16:09.218Z,2.57
2018-05-09T16:18:37.699Z,2.27
2018-05-09T16:21:05.216Z,2.10
2018-05-09T16:23:33.359Z,2.97
2018-05-09T16:26:01.653Z,2.43
2018-05-09T16:28:29.160Z,2.37
2018-05-09T16:30:56.693Z,2.60
2018-05-09T16:33:24.205Z,2.57
2018-05-09T16:35:52.468Z,3.00
2018-05-09T16:38:19.988Z,2.47
2018-05-09T16:40:47.498Z,2.90
2018-05-09T16:43:15.760Z,2.10
2018-05-09T16:45:43.268Z,2.10
2018-05-09T16:48:10.798Z,3.17
2018-05-09T16:50:39.107Z,2.50
2018-05-09T16:53:06.628Z,2.50
2018-05-09T16:55:34.910Z,2.50
2018-05-09T16:58:03.192Z,2.10
2018-05-09T17:00:30.722Z,2.47
2018-05-09T17:02:58.236Z,1.93
2018-05-09T17:05:25.928Z,2.17
2018-05-09T17:07:53.475Z,3.13
2018-05-09T17:10:20.976Z,2.20
2018-05-09T17:12:49.250Z,2.20
2018-05-09T17:15:17.532Z,2.10
2018-05-09T17:17:45.826Z,1.97
2018-05-09T17:20:13.343Z,1.60
2018-05-09T17:22:40.859Z,2.30
2018-05-09T17:25:08.364Z,1.80
2018-05-09T17:27:36.661Z,2.10
2018-05-09T17:30:04.924Z,2.00
2018-05-09T17:32:32.463Z,2.33
2018-05-09T17:34:59.999Z,2.80
2018-05-09T17:37:27.500Z,1.73
2018-05-09T17:39:55.796Z,2.10
2018-05-09T17:42:23.295Z,2.10
2018-05-09T17:44:50.824Z,2.03
2018-05-09T17:47:18.324Z,2.33
2018-05-09T17:49:45.845Z,2.17
2018-05-09T17:52:13.361Z,1.97
2018-05-09T17:54:40.875Z,1.90
2018-05-09T17:57:08.401Z,2.40
2018-05-09T17:59:36.672Z,1.80
2018-05-09T18:02:04.973Z,2.67
2018-05-09T18:04:32.480Z,1.77
2018-05-09T18:07:00.966Z,1.60
2018-05-09T18:09:28.501Z,1.60
2018-05-09T18:11:56.018Z,1.40
2018-05-09T18:14:24.310Z,1.80
2018-05-09T18:16:51.816Z,1.67
2018-05-09T18:19:19.334Z,1.93
2018-05-09T18:21:46.893Z,2.23
2018-05-09T18:24:14.427Z,1.97
2018-05-09T18:26:42.782Z,2.20
2018-05-09T18:29:10.229Z,1.70
2018-05-09T18:31:37.771Z,1.87
2018-05-09T18:34:05.268Z,2.23
2018-05-09T18:36:33.561Z,2.40
2018-05-09T18:39:01.058Z,2.23
2018-05-09T18:41:28.570Z,2.37
2018-05-09T18:43:56.852Z,2.10
2018-05-09T18:46:24.466Z,2.00
2018-05-09T18:48:51.893Z,2.03
2018-05-09T18:51:19.413Z,2.17
2018-05-09T18:53:47.704Z,1.83
2018-05-09T18:56:15.241Z,2.13
2018-05-09T18:58:42.764Z,2.00
2018-05-09T19:01:11.112Z,2.10
2018-05-09T19:03:38.649Z,2.10
2018-05-09T19:06:06.939Z,2.27
2018-05-09T19:08:34.452Z,2.33
2018-05-09T19:11:01.975Z,2.40
2018-05-09T19:13:29.543Z,2.13
2018-05-09T19:15:57.090Z,1.90
2018-05-09T19:18:24.604Z,2.60
2018-05-09T19:20:52.137Z,2.37
2018-05-09T19:23:19.660Z,2.63
2018-05-09T19:25:47.181Z,2.10
2018-05-09T19:28:14.692Z,2.47
2018-05-09T19:30:42.237Z,2.70
2018-05-09T19:33:09.741Z,2.27
2018-05-09T19:35:37.260Z,2.00
2018-05-09T19:38:04.807Z,2.60
2018-05-09T19:40:33.170Z,3.27
2018-05-09T19:43:01.457Z,2.30
2018-05-09T19:45:28.999Z,2.40
2018-05-09T19:47:57.361Z,2.27
2018-05-09T19:50:24.849Z,3.20
2018-05-09T19:52:52.362Z,2.80
2018-05-09T19:55:19.892Z,2.90
2018-05-09T19:57:47.414Z,4.63
2018-05-09T20:00:15.698Z,2.77
2018-05-09T20:02:43.234Z,2.30
2018-05-09T20:05:11.516Z,2.50
2018-05-09T20:07:39.812Z,2.83
2018-05-09T20:10:07.345Z,3.00
2018-05-09T20:12:34.866Z,2.90
2018-05-09T20:15:02.409Z,3.33
2018-05-09T20:17:29.917Z,2.80
2018-05-09T20:19:57.451Z,4.23
2018-05-09T20:22:24.959Z,3.90
2018-05-09T20:24:53.263Z,3.37
2018-05-09T20:27:20.777Z,4.07
2018-05-09T20:29:49.086Z,4.23
2018-05-09T20:32:28.455Z,3.47
2018-05-09T20:34:55.987Z,4.60
2018-05-09T20:37:23.505Z,4.60
2018-05-09T20:39:51.014Z,4.00
2018-05-09T20:42:18.549Z,4.30
2018-05-09T20:44:46.064Z,3.90
2018-05-09T20:47:14.107Z,3.63
2018-05-09T20:49:41.638Z,4.00
2018-05-09T20:52:09.179Z,4.00
2018-05-09T20:54:37.473Z,3.67
2018-05-09T20:57:05.078Z,3.23
2018-05-09T20:59:32.616Z,4.00
2018-05-09T21:02:00.150Z,3.93
2018-05-09T21:04:28.447Z,4.27
2018-05-09T21:06:55.956Z,4.33
2018-05-09T21:09:24.274Z,4.30
2018-05-09T21:12:03.747Z,4.63
2018-05-09T21:14:31.340Z,5.10
2018-05-09T21:16:58.819Z,4.80
2018-05-09T21:19:26.320Z,4.40
2018-05-09T21:21:54.003Z,4.43
2018-05-09T21:24:22.329Z,4.37
2018-05-09T21:26:49.853Z,4.30
2018-05-09T21:29:18.115Z,4.23
2018-05-09T21:31:45.664Z,4.30
2018-05-09T21:34:13.178Z,4.43
2018-05-09T21:36:40.689Z,4.20
2018-05-09T21:39:08.223Z,4.30
2018-05-09T21:41:35.743Z,4.50
2018-05-09T21:44:03.274Z,3.80
2018-05-09T21:46:30.792Z,4.10
2018-05-09T21:48:58.329Z,4.13
2018-05-09T21:51:25.858Z,3.90
2018-05-09T21:53:54.173Z,3.83
2018-05-09T21:56:21.715Z,3.40
2018-05-09T21:58:49.217Z,4.13
2018-05-09T22:01:16.804Z,4.20
2018-05-09T22:03:44.289Z,4.77
2018-05-09T22:06:11.803Z,4.00
2018-05-09T22:08:39.356Z,5.47
2018-05-09T22:11:06.873Z,4.27
2018-05-09T22:13:34.398Z,3.77
2018-05-09T22:16:01.953Z,4.30
2018-05-09T22:18:29.472Z,5.03
2018-05-09T22:20:57.005Z,3.93
2018-05-09T22:23:24.542Z,4.40
2018-05-09T22:25:52.845Z,5.07
2018-05-09T22:28:20.379Z,4.30
2018-05-09T22:30:48.651Z,4.13
2018-05-09T22:33:16.168Z,4.13
2018-05-09T22:35:43.697Z,3.43
2018-05-09T22:38:11.226Z,3.73
2018-05-09T22:40:38.770Z,3.37
2018-05-09T22:43:06.339Z,3.77
2018-05-09T22:45:33.858Z,3.70
2018-05-09T22:48:01.367Z,3.43
2018-05-09T22:50:29.662Z,4.10
2018-05-09T22:52:57.182Z,3.50
2018-05-09T22:55:24.708Z,3.57
2018-05-09T22:57:52.204Z,3.97
2018-05-09T23:00:20.515Z,3.83
2018-05-09T23:02:48.049Z,3.50
2018-05-09T23:05:15.543Z,4.27
2018-05-09T23:07:43.178Z,3.60
2018-05-09T23:10:11.532Z,4.13
2018-05-09T23:12:39.725Z,3.67
2018-05-09T23:15:08.768Z,4.47
2018-05-09T23:17:36.279Z,3.93
2018-05-09T23:20:04.574Z,3.60
2018-05-09T23:22:32.080Z,4.07
2018-05-09T23:24:59.579Z,4.20
2018-05-09T23:27:27.858Z,3.43
2018-05-09T23:29:56.137Z,3.57
2018-05-09T23:32:24.431Z,4.57
2018-05-09T23:34:51.947Z,4.30
2018-05-09T23:37:19.484Z,3.80
2018-05-09T23:39:47.019Z,4.47
2018-05-09T23:42:14.554Z,4.60
2018-05-09T23:44:42.077Z,3.93
2018-05-09T23:47:09.611Z,4.00
2018-05-09T23:49:37.130Z,4.50
2018-05-09T23:52:04.733Z,3.60
2018-05-09T23:54:32.216Z,3.93
2018-05-09T23:56:59.758Z,4.13
2018-05-09T23:59:27.274Z,4.00
